Time;durP1;ratioP1;P1;durP2;ratioP2;P2;SDS_P1;SDS_P2;PMS_P1;PMS_P2;Temp;Humidity;BMP_temperature;BMP_pressure;BME280_temperature;BME280_humidity;BME280_pressure;Samples;Min_cycle;Max_cycle;Signal;HPM_P1;HPM_P2
2022/07/11 00:02:13;;;;;;;3.92;1.65;;;;;;;19.42;65.56;99512.91;1735294;82;21704;-63
2022/07/11 00:04:46;;;;;;;2.70;2.00;;;;;;;19.39;65.58;99518.47;1735425;80;21038;-63
2022/07/11 00:07:17;;;;;;;1.77;1.60;;;;;;;19.38;65.52;99525.69;1723995;83;21004;-62
2022/07/11 00:09:47;;;;;;;2.10;1.90;;;;;;;19.37;65.54;99517.91;1734567;83;21078;-62
2022/07/11 00:12:20;;;;;;;5.00;1.80;;;;;;;19.36;65.53;99520.41;1735064;82;21043;-63
2022/07/11 00:14:49;;;;;;;2.45;1.60;;;;;;;19.36;65.55;99517.63;1735576;82;21536;-66
2022/07/11 00:17:19;;;;;;;1.70;1.60;;;;;;;19.36;65.54;99518.19;1734938;83;21113;-63
2022/07/11 00:19:50;;;;;;;4.12;1.77;;;;;;;19.35;65.52;99519.30;1735656;83;21058;-63
2022/07/11 00:22:22;;;;;;;2.50;1.85;;;;;;;19.34;65.48;99532.36;1735336;82;21020;-63
2022/07/11 00:24:52;;;;;;;3.52;1.80;;;;;;;19.34;65.38;99522.63;1735444;82;21489;-63
2022/07/11 00:27:24;;;;;;;1.95;1.80;;;;;;;19.30;65.39;99518.19;1735603;82;21095;-64
2022/07/11 00:29:55;;;;;;;1.70;1.60;;;;;;;19.25;65.46;99519.57;1735438;82;21435;-62
2022/07/11 00:32:26;;;;;;;2.37;1.75;;;;;;;19.25;65.52;99515.41;1735309;83;21027;-63
2022/07/11 00:34:55;;;;;;;1.70;1.60;;;;;;;19.23;65.53;99502.35;1734974;83;21416;-63
2022/07/11 00:37:25;;;;;;;2.65;1.65;;;;;;;19.19;65.60;99495.68;1735902;83;21003;-63
2022/07/11 00:39:55;;;;;;;2.15;1.62;;;;;;;19.14;65.69;99499.01;1734646;83;21090;-63
2022/07/11 00:42:26;;;;;;;3.90;1.77;;;;;;;19.09;65.77;99501.23;1735193;82;21007;-63
2022/07/11 00:44:57;;;;;;;1.90;1.70;;;;;;;19.03;65.89;99500.94;1735175;83;21003;-62
2022/07/11 00:47:26;;;;;;;3.67;1.90;;;;;;;19.00;66.02;99505.09;1735309;83;21039;-62
2022/07/11 00:49:56;;;;;;;2.90;1.90;;;;;;;19.00;66.08;99502.88;1723410;83;21030;-63
2022/07/11 00:52:26;;;;;;;2.12;1.50;;;;;;;18.99;66.04;99503.98;1735104;83;21024;-63
2022/07/11 00:54:55;;;;;;;2.77;1.70;;;;;;;18.99;66.02;99500.66;1735712;82;21133;-64
2022/07/11 00:57:26;;;;;;;2.47;1.62;;;;;;;18.98;66.05;99507.31;1735021;83;21435;-63
2022/07/11 00:59:57;;;;;;;3.05;1.57;;;;;;;19.01;66.00;99512.87;1734990;82;21455;-62
2022/07/11 01:02:28;;;;;;;2.45;1.60;;;;;;;19.02;65.81;99504.82;1735048;82;21016;-62
2022/07/11 01:04:59;;;;;;;2.33;1.60;;;;;;;19.00;65.66;99506.48;1734850;82;21019;-63
2022/07/11 01:07:30;;;;;;;1.45;1.35;;;;;;;18.99;65.47;99513.14;1739961;82;21023;-63
2022/07/11 01:10:00;;;;;;;2.50;1.40;;;;;;;18.99;65.39;99504.81;1739605;82;21528;-63
2022/07/11 01:12:31;;;;;;;2.22;1.40;;;;;;;19.00;65.33;99502.32;1739277;82;20999;-62
2022/07/11 01:15:03;;;;;;;1.52;1.35;;;;;;;19.01;65.24;99501.77;1739904;82;21122;-64
2022/07/11 01:17:34;;;;;;;1.95;1.45;;;;;;;19.03;65.16;99493.16;1739946;82;21031;-62
2022/07/11 01:20:04;;;;;;;2.37;1.32;;;;;;;19.02;65.08;99494.27;1739471;82;21063;-62
2022/07/11 01:22:37;;;;;;;1.72;1.40;;;;;;;19.01;65.11;99489.27;1739816;82;21010;-63
2022/07/11 01:25:07;;;;;;;2.95;1.50;;;;;;;18.99;65.05;99492.88;1739735;82;21039;-65
2022/07/11 01:27:38;;;;;;;2.77;1.70;;;;;;;18.94;65.07;99493.70;1740170;81;20999;-62
2022/07/11 01:30:09;;;;;;;3.80;1.60;;;;;;;18.91;65.16;99492.03;1739464;82;21007;-62
2022/07/11 01:32:39;;;;;;;6.03;1.90;;;;;;;18.91;65.17;99493.42;1725886;82;21063;-66
2022/07/11 01:35:09;;;;;;;1.98;1.40;;;;;;;18.89;65.22;99488.70;1738288;82;21042;-62
2022/07/11 01:37:38;;;;;;;1.80;1.40;;;;;;;18.85;65.26;99496.70;1739519;82;21501;-63
2022/07/11 01:40:10;;;;;;;2.40;1.60;;;;;;;18.83;65.27;99492.53;1740089;82;21038;-63
2022/07/11 01:42:40;;;;;;;3.60;1.60;;;;;;;18.82;65.35;99487.55;1739522;81;20971;-63
2022/07/11 01:45:11;;;;;;;3.77;1.65;;;;;;;18.79;65.40;99489.48;1739494;82;21023;-63
2022/07/11 01:47:43;;;;;;;4.08;1.50;;;;;;;18.75;65.59;99487.52;1739724;82;21414;-62
2022/07/11 01:50:13;;;;;;;2.15;1.60;;;;;;;18.74;65.69;99484.47;1739896;82;21066;-62
2022/07/11 01:52:43;;;;;;;3.50;1.40;;;;;;;18.75;65.69;99486.97;1739575;82;21011;-62
2022/07/11 01:55:13;;;;;;;3.75;1.67;;;;;;;18.77;65.63;99482.53;1739915;81;21082;-62
2022/07/11 01:57:45;;;;;;;3.17;1.70;;;;;;;18.74;65.68;99490.02;1740015;81;20983;-64
2022/07/11 02:00:16;;;;;;;2.10;1.90;;;;;;;18.69;65.80;99487.52;1739732;82;20979;-63
2022/07/11 02:02:45;;;;;;;2.08;1.52;;;;;;;18.64;65.95;99486.11;1739778;82;21501;-63
2022/07/11 02:05:16;;;;;;;1.90;1.30;;;;;;;18.64;66.11;99487.50;1728564;82;21106;-62
2022/07/11 02:10:35;;;;;;;3.80;1.77;;;;;;;18.54;66.49;99476.34;1727144;83;21004;-63
2022/07/11 02:13:05;;;;;;;6.62;2.02;;;;;;;18.51;66.70;99477.44;1734993;83;21023;-62
2022/07/11 02:15:36;;;;;;;3.50;1.80;;;;;;;18.46;66.85;99485.73;1734923;82;21027;-63
2022/07/11 02:18:07;;;;;;;2.42;1.70;;;;;;;18.41;67.15;99488.49;1735171;82;21047;-62
2022/07/11 02:20:40;;;;;;;5.05;1.92;;;;;;;18.36;67.33;99483.20;1735720;83;21024;-62
2022/07/11 02:23:10;;;;;;;2.55;1.52;;;;;;;18.32;67.60;99484.02;1735102;82;21035;-64
2022/07/11 02:25:42;;;;;;;3.55;1.60;;;;;;;18.31;67.76;99487.90;1735818;82;21015;-62
2022/07/11 02:28:13;;;;;;;2.55;1.67;;;;;;;18.31;67.94;99485.13;1734510;83;21031;-63
2022/07/11 02:30:43;;;;;;;5.05;1.60;;;;;;;18.35;68.03;99486.25;1735103;83;21042;-64
2022/07/11 02:33:16;;;;;;;4.40;1.70;;;;;;;18.34;68.20;99483.20;1735021;82;21213;-66
2022/07/11 02:35:47;;;;;;;3.60;1.60;;;;;;;18.35;68.31;99487.09;1736124;83;21023;-63
2022/07/11 02:38:18;;;;;;;2.72;1.70;;;;;;;18.32;68.57;99484.85;1735431;83;21007;-64
2022/07/11 02:40:48;;;;;;;3.25;1.40;;;;;;;18.30;68.68;99477.91;1735395;82;21059;-62
2022/07/11 02:43:18;;;;;;;1.85;1.45;;;;;;;18.32;68.90;99479.86;1735214;83;21126;-62
2022/07/11 02:45:49;;;;;;;2.40;1.70;;;;;;;18.34;68.93;99480.42;1723762;83;21031;-63
2022/07/11 02:48:20;;;;;;;1.50;1.40;;;;;;;18.34;69.03;99474.33;1735443;83;21511;-63
2022/07/11 02:50:51;;;;;;;3.62;1.72;;;;;;;18.36;69.18;99470.73;1735049;83;21035;-66
2022/07/11 02:53:28;;;;;;;1.82;1.60;;;;;;;18.37;69.31;99478.49;1735058;82;21023;-62
2022/07/11 02:56:18;;;;;;;;;;;;;;;18.40;69.41;99470.19;1725965;83;21042;-62
2022/07/11 02:58:49;;;;;;;3.65;1.72;;;;;;;18.39;69.55;99474.89;1675850;85;20161;-63
2022/07/11 03:01:19;;;;;;;2.17;1.70;;;;;;;18.39;69.75;99476.28;1676529;85;21023;-63
2022/07/11 03:03:50;;;;;;;4.12;1.80;;;;;;;18.44;69.81;99469.37;1676004;85;21058;-63
2022/07/11 03:06:20;;;;;;;2.22;1.65;;;;;;;18.46;69.79;99467.16;1675940;85;21023;-62
2022/07/11 03:08:50;;;;;;;4.15;1.82;;;;;;;18.47;69.90;99464.66;1676557;85;21023;-63
2022/07/11 03:11:20;;;;;;;1.95;1.60;;;;;;;18.46;70.01;99467.70;1676949;85;21464;-62
2022/07/11 03:13:50;;;;;;;3.05;1.77;;;;;;;18.46;70.01;99470.48;1676879;85;21512;-63
2022/07/11 03:16:21;;;;;;;2.00;1.65;;;;;;;18.48;69.96;99466.33;1672369;84;21049;-63
2022/07/11 03:18:51;;;;;;;3.50;1.72;;;;;;;18.52;69.87;99475.77;1670911;85;21023;-62
2022/07/11 03:21:21;;;;;;;2.87;1.77;;;;;;;18.58;69.71;99475.23;1676329;85;21023;-63
2022/07/11 03:23:51;;;;;;;4.87;1.80;;;;;;;18.63;69.53;99480.28;1676238;85;21023;-63
2022/07/11 03:26:21;;;;;;;2.00;1.80;;;;;;;18.65;69.34;99485.00;1675384;85;21039;-63
2022/07/11 03:28:51;;;;;;;2.55;2.05;;;;;;;18.65;69.21;99490.55;1675872;85;21443;-63
2022/07/11 03:31:21;;;;;;;4.03;1.92;;;;;;;18.67;69.14;99486.95;1676164;85;21014;-62
2022/07/11 03:33:52;;;;;;;3.50;1.80;;;;;;;18.67;68.82;99487.50;1675823;85;21475;-62
2022/07/11 03:36:22;;;;;;;4.92;1.80;;;;;;;18.64;68.66;99493.59;1675591;85;21015;-64
2022/07/11 03:38:53;;;;;;;3.47;1.80;;;;;;;18.60;68.52;99499.38;1675757;85;21443;-61
2022/07/11 03:41:22;;;;;;;2.80;1.70;;;;;;;18.54;68.49;99492.14;1675706;85;21031;-65
2022/07/11 03:43:52;;;;;;;2.90;2.10;;;;;;;18.50;68.49;99496.02;1676294;85;21015;-63
2022/07/11 03:46:22;;;;;;;2.52;1.72;;;;;;;18.48;68.47;99496.84;1676324;85;21006;-63
2022/07/11 03:48:51;;;;;;;3.75;1.92;;;;;;;18.44;68.49;99502.66;1675974;85;21502;-63
2022/07/11 03:51:20;;;;;;;3.00;1.80;;;;;;;18.38;68.55;99499.58;1676505;85;21011;-64
2022/07/11 03:53:50;;;;;;;3.22;1.87;;;;;;;18.40;68.64;99503.47;1676741;85;21209;-62
2022/07/11 03:56:22;;;;;;;3.70;1.90;;;;;;;18.47;68.62;99509.59;1657094;86;21064;-63
2022/07/11 03:58:53;;;;;;;4.37;1.92;;;;;;;18.49;68.55;99508.22;1678396;84;21035;-64
2022/07/11 04:01:22;;;;;;;2.22;1.90;;;;;;;18.49;68.27;99510.99;1680054;85;21054;-62
2022/07/11 04:03:53;;;;;;;4.85;2.25;;;;;;;18.44;68.20;99522.63;1680058;84;21078;-63
2022/07/11 04:06:23;;;;;;;2.80;2.00;;;;;;;18.37;68.34;99518.16;1680575;84;21053;-64
2022/07/11 04:08:53;;;;;;;4.20;2.05;;;;;;;18.37;68.38;99514.55;1680332;85;21062;-63
2022/07/11 04:11:23;;;;;;;7.12;2.10;;;;;;;18.41;68.38;99517.06;1680159;85;21038;-63
2022/07/11 04:13:53;;;;;;;3.22;2.22;;;;;;;18.46;68.32;99508.77;1680070;85;21322;-62
2022/07/11 04:16:24;;;;;;;4.10;2.20;;;;;;;18.50;68.25;99504.89;1676790;85;21537;-62
2022/07/11 04:18:54;;;;;;;3.25;2.47;;;;;;;18.48;68.20;99513.48;1680526;85;21027;-62
2022/07/11 04:21:26;;;;;;;5.30;2.58;;;;;;;18.44;68.30;99515.13;1680469;84;21007;-64
2022/07/11 04:23:57;;;;;;;5.35;3.35;;;;;;;18.40;68.38;99512.63;1679733;84;21021;-62
2022/07/11 04:26:26;;;;;;;8.15;3.75;;;;;;;18.40;68.42;99511.23;1680221;85;21126;-62
2022/07/11 04:28:56;;;;;;;5.53;3.30;;;;;;;18.36;68.46;99511.49;1681226;85;21031;-63
2022/07/11 04:31:26;;;;;;;7.75;4.22;;;;;;;18.35;68.68;99515.38;1681181;84;21494;-63
2022/07/11 04:33:55;;;;;;;12.65;5.28;;;;;;;18.31;68.77;99514.24;1681192;85;21038;-63
2022/07/11 04:36:25;;;;;;;11.83;5.58;;;;;;;18.32;68.83;99520.91;1681237;84;21058;-63
2022/07/11 04:38:55;;;;;;;16.30;6.92;;;;;;;18.32;68.82;99513.97;1681158;84;21050;-63
2022/07/11 04:41:25;;;;;;;13.48;6.95;;;;;;;18.32;68.76;99511.75;1680369;84;21078;-65
2022/07/11 04:43:54;;;;;;;17.32;8.03;;;;;;;18.33;68.73;99513.42;1680652;85;21030;-64
2022/07/11 04:46:25;;;;;;;16.97;8.73;;;;;;;18.34;68.64;99508.16;1680271;85;21050;-63
2022/07/11 04:48:57;;;;;;;19.85;9.33;;;;;;;18.39;68.61;99508.18;1680189;84;21064;-65
2022/07/11 04:51:27;;;;;;;18.87;9.65;;;;;;;18.41;68.48;99507.91;1679605;85;21529;-64
2022/07/11 04:53:59;;;;;;;21.05;10.48;;;;;;;18.43;68.49;99512.08;1680930;85;21058;-63
2022/07/11 04:56:29;;;;;;;24.25;11.38;;;;;;;18.46;68.42;99505.98;1680975;85;21065;-63
2022/07/11 04:58:59;;;;;;;24.60;11.18;;;;;;;18.50;68.36;99504.34;1680429;84;21046;-67
2022/07/11 05:01:28;;;;;;;25.15;10.35;;;;;;;18.54;68.20;99511.02;1679719;85;21053;-66
2022/07/11 05:03:58;;;;;;;20.05;10.40;;;;;;;18.59;68.10;99507.42;1680957;84;20998;-61
2022/07/11 05:06:28;;;;;;;19.30;10.55;;;;;;;18.63;67.92;99507.19;1680265;84;21054;-64
2022/07/11 05:08:57;;;;;;;26.55;11.97;;;;;;;18.63;67.93;99514.13;1680195;84;21011;-63
2022/07/11 05:11:27;;;;;;;30.12;12.40;;;;;;;18.64;67.95;99506.08;1680661;85;21060;-61
2022/07/11 05:13:59;;;;;;;24.60;12.00;;;;;;;18.67;67.91;99516.09;1680355;84;21078;-65
2022/07/11 05:16:32;;;;;;;29.95;11.90;;;;;;;18.71;67.92;99507.22;1680824;85;21019;-63
2022/07/11 05:19:03;;;;;;;25.55;11.22;;;;;;;18.72;67.87;99505.55;1680133;84;21084;-63
2022/07/11 05:21:33;;;;;;;26.23;11.80;;;;;;;18.76;67.80;99511.39;1680660;85;21502;-62
2022/07/11 05:24:04;;;;;;;24.90;11.68;;;;;;;18.78;67.64;99516.95;1679875;84;21375;-63
2022/07/11 05:26:36;;;;;;;24.92;13.55;;;;;;;18.80;67.61;99512.52;1680751;85;21016;-65
2022/07/11 05:29:06;;;;;;;27.15;12.88;;;;;;;18.85;67.39;99518.08;1680320;84;21039;-63
2022/07/11 05:31:37;;;;;;;24.57;13.05;;;;;;;18.91;67.04;99515.63;1680118;85;21070;-63
2022/07/11 05:34:06;;;;;;;29.10;12.95;;;;;;;18.97;66.62;99523.69;1680659;84;21031;-62
2022/07/11 05:36:37;;;;;;;26.82;13.03;;;;;;;19.03;66.46;99520.37;1680444;85;21022;-64
2022/07/11 05:39:07;;;;;;;27.98;12.28;;;;;;;19.10;66.08;99521.50;1680414;85;21443;-64
2022/07/11 05:41:37;;;;;;;26.62;12.05;;;;;;;19.15;65.68;99523.72;1680564;85;21066;-63
2022/07/11 05:44:09;;;;;;;24.80;11.33;;;;;;;19.24;65.49;99524.84;1680496;84;21043;-63
2022/07/11 05:46:39;;;;;;;24.10;11.25;;;;;;;19.30;65.17;99521.52;1680418;84;21080;-70
2022/07/11 05:49:09;;;;;;;25.70;11.57;;;;;;;19.33;64.90;99512.08;1681076;85;21039;-63
2022/07/11 05:51:46;;;;;;;19.48;10.93;;;;;;;19.36;64.79;99517.63;1680331;85;21074;-63
2022/07/11 05:54:19;;;;;;;23.52;11.90;;;;;;;19.43;64.67;99516.80;1628677;87;21139;-64
2022/07/11 05:56:49;;;;;;;19.35;10.32;;;;;;;19.53;64.43;99511.86;1593392;88;21050;-63
2022/07/11 05:59:21;;;;;;;21.10;10.30;;;;;;;19.65;64.04;99515.20;1611874;87;21132;-62
2022/07/11 06:01:51;;;;;;;22.80;9.58;;;;;;;19.84;63.66;99526.02;1596829;89;21111;-64
2022/07/11 06:04:21;;;;;;;18.50;9.23;;;;;;;20.06;63.19;99518.75;1601950;89;21051;-62
2022/07/11 06:06:50;;;;;;;18.15;9.88;;;;;;;20.33;62.51;99513.41;1604313;89;21556;-64
2022/07/11 06:09:21;;;;;;;17.87;9.00;;;;;;;20.65;61.60;99515.26;1608255;89;21059;-63
2022/07/11 06:11:53;;;;;;;21.95;9.60;;;;;;;20.99;60.89;99509.81;1551558;89;21100;-63
2022/07/11 06:14:23;;;;;;;15.53;8.30;;;;;;;21.34;59.58;99516.29;1600586;89;21511;-65
2022/07/11 06:16:54;;;;;;;16.00;8.60;;;;;;;21.65;58.62;99506.58;1599379;89;21585;-66
2022/07/11 06:19:24;;;;;;;15.48;7.87;;;;;;;21.98;57.41;99509.05;1600252;89;21128;-63
2022/07/11 06:21:55;;;;;;;14.73;8.25;;;;;;;22.20;56.21;99506.37;1599984;89;21094;-64
2022/07/11 06:24:25;;;;;;;17.12;8.00;;;;;;;22.29;55.89;99502.63;1599873;89;21055;-63
2022/07/11 06:27:00;;;;;;;14.47;7.50;;;;;;;22.34;55.50;99503.97;1600204;89;21035;-65
2022/07/11 06:29:27;;;;;;;13.20;6.65;;;;;;;22.43;55.25;99497.16;1620486;85;21063;-62
2022/07/11 06:31:57;;;;;;;15.28;6.90;;;;;;;22.49;54.87;99503.52;1683688;84;21016;-65
2022/07/11 06:34:28;;;;;;;14.18;6.35;;;;;;;22.50;54.87;99506.01;1672659;85;21027;-64
2022/07/11 06:36:59;;;;;;;10.45;6.08;;;;;;;22.51;54.79;99506.84;1658109;85;21166;-63
2022/07/11 06:39:30;;;;;;;13.38;6.10;;;;;;;22.53;54.81;99505.98;1672311;85;21462;-63
2022/07/11 06:42:03;;;;;;;10.55;5.75;;;;;;;22.55;54.75;99500.36;1683781;85;21558;-62
2022/07/11 06:44:35;;;;;;;8.13;5.03;;;;;;;22.56;54.53;99500.63;1672723;85;21050;-63
2022/07/11 06:47:06;;;;;;;14.15;5.35;;;;;;;22.53;54.64;99499.00;1682617;85;21054;-63
2022/07/11 06:49:36;;;;;;;12.95;5.58;;;;;;;22.53;54.87;99494.81;1672327;84;21027;-64
2022/07/11 06:52:06;;;;;;;10.93;5.22;;;;;;;22.58;54.79;99497.53;1683000;85;21019;-63
2022/07/11 06:54:37;;;;;;;10.80;5.70;;;;;;;22.68;54.55;99498.80;1682197;85;21030;-64
2022/07/11 06:57:07;;;;;;;9.23;4.72;;;;;;;22.72;54.50;99493.71;1683546;84;21054;-63
2022/07/11 06:59:38;;;;;;;8.63;4.80;;;;;;;22.77;54.35;99494.23;1676558;85;21079;-63
2022/07/11 07:02:07;;;;;;;8.00;4.47;;;;;;;22.81;54.31;99495.89;1676079;85;21067;-63
2022/07/11 07:04:37;;;;;;;8.63;4.35;;;;;;;22.88;54.28;99484.61;1676051;85;21027;-64
2022/07/11 07:07:09;;;;;;;9.08;4.80;;;;;;;22.97;53.85;99488.39;1621453;88;21093;-64
2022/07/11 07:09:39;;;;;;;11.80;4.92;;;;;;;22.99;53.74;99489.48;1620859;88;21571;-65
2022/07/11 07:12:09;;;;;;;8.30;4.00;;;;;;;22.98;53.99;99487.26;1621685;88;21048;-64
2022/07/11 07:14:38;;;;;;;8.23;4.17;;;;;;;23.09;53.91;99493.52;1622141;88;21506;-68
2022/07/11 07:17:08;;;;;;;7.83;3.92;;;;;;;23.20;53.65;99495.59;1621339;88;21131;-63
2022/07/11 07:19:38;;;;;;;11.70;3.77;;;;;;;23.26;53.39;99494.38;1621847;88;21012;-65
2022/07/11 07:22:08;;;;;;;6.33;2.92;;;;;;;23.32;53.30;99487.58;1620925;88;21274;-64
2022/07/11 07:24:39;;;;;;;9.78;5.00;;;;;;;23.48;52.21;99489.02;1633385;85;21024;-64
2022/07/11 07:27:09;;;;;;;5.83;3.08;;;;;;;23.60;51.51;99486.60;1676339;85;21031;-63
2022/07/11 07:29:38;;;;;;;5.05;3.10;;;;;;;23.69;51.01;99493.16;1676080;85;21126;-63
2022/07/11 07:32:08;;;;;;;4.97;2.55;;;;;;;23.73;51.11;99493.38;1675715;85;21506;-63
2022/07/11 07:34:38;;;;;;;6.33;2.20;;;;;;;23.79;50.47;99491.31;1676180;85;21496;-73
2022/07/11 07:37:08;;;;;;;4.33;2.25;;;;;;;23.84;49.75;99497.64;1666143;85;21007;-62
2022/07/11 07:39:38;;;;;;;3.70;2.10;;;;;;;23.89;49.19;99499.52;1676275;85;21062;-62
2022/07/11 07:42:08;;;;;;;4.80;2.12;;;;;;;24.00;48.71;99499.02;1665576;85;21040;-63
2022/07/11 07:44:38;;;;;;;2.95;2.00;;;;;;;24.07;48.46;99505.65;1676319;85;21050;-71
2022/07/11 07:47:08;;;;;;;5.25;2.30;;;;;;;24.22;47.83;99498.92;1671577;85;21472;-62
2022/07/11 07:49:38;;;;;;;5.80;2.10;;;;;;;24.33;47.64;99501.81;1676044;85;21138;-63
2022/07/11 07:52:08;;;;;;;3.22;1.77;;;;;;;24.40;47.40;99508.40;1676070;85;21357;-65
2022/07/11 07:54:38;;;;;;;3.47;1.82;;;;;;;24.40;46.71;99498.59;1675435;85;21000;-64
2022/07/11 07:57:08;;;;;;;5.65;1.65;;;;;;;24.37;46.49;99502.02;1676547;85;21050;-64
2022/07/11 07:59:37;;;;;;;6.80;2.10;;;;;;;24.32;46.70;99504.35;1678675;84;21015;-63
2022/07/11 08:02:10;;;;;;;5.55;1.72;;;;;;;24.24;46.85;99505.05;1680426;85;21090;-63
2022/07/11 08:04:41;;;;;;;2.08;1.30;;;;;;;24.14;46.77;99496.27;1680566;85;21074;-65
2022/07/11 08:07:19;;;;;;;2.92;1.45;;;;;;;24.01;47.04;99505.45;1680054;84;21023;-62
2022/07/11 08:09:49;;;;;;;4.33;1.40;;;;;;;23.94;46.74;99498.03;1677498;85;21540;-62
2022/07/11 08:12:18;;;;;;;2.22;1.47;;;;;;;23.88;47.20;99507.66;1679222;85;21117;-62
2022/07/11 08:14:49;;;;;;;10.45;6.35;;;;;;;23.86;47.08;99499.56;1669310;85;21081;-66
2022/07/11 08:17:21;;;;;;;3.77;2.10;;;;;;;23.85;47.33;99499.88;1670880;85;21035;-60
2022/07/11 08:19:52;;;;;;;3.67;1.75;;;;;;;23.84;47.12;99506.61;1680901;85;21584;-63
2022/07/11 08:22:23;;;;;;;9.40;2.00;;;;;;;23.76;47.07;99503.95;1680911;85;21070;-61
2022/07/11 08:24:53;;;;;;;2.85;1.50;;;;;;;23.67;47.42;99509.41;1678999;85;21054;-61
2022/07/11 08:27:24;;;;;;;2.08;1.55;;;;;;;23.59;47.84;99505.09;1677795;84;21352;-62
2022/07/11 08:29:57;;;;;;;6.20;1.60;;;;;;;23.52;47.88;99501.25;1676790;84;21051;-64
2022/07/11 08:32:28;;;;;;;6.30;2.05;;;;;;;23.49;48.35;99507.45;1680247;85;21105;-65
2022/07/11 08:34:59;;;;;;;4.67;1.72;;;;;;;23.43;48.27;99503.08;1678818;85;21038;-65
2022/07/11 08:37:29;;;;;;;4.10;1.67;;;;;;;23.45;48.61;99502.20;1679961;85;21090;-65
2022/07/11 08:39:59;;;;;;;5.10;1.82;;;;;;;23.50;48.40;99509.11;1672640;84;21087;-66
2022/07/11 08:42:30;;;;;;;4.55;1.67;;;;;;;23.56;48.41;99488.92;1668709;85;21106;-67
2022/07/11 08:45:00;;;;;;;2.75;1.70;;;;;;;23.62;47.77;99510.90;1678387;85;21131;-67
2022/07/11 08:47:30;;;;;;;5.05;1.75;;;;;;;23.73;47.85;99507.92;1678643;85;21407;-66
2022/07/11 08:50:01;;;;;;;6.28;1.65;;;;;;;23.84;47.73;99499.05;1678275;85;21015;-65
2022/07/11 08:52:34;;;;;;;1.95;1.40;;;;;;;23.95;47.47;99503.89;1676751;85;21091;-66
2022/07/11 08:55:07;;;;;;;4.87;1.55;;;;;;;24.00;47.13;99509.39;1677624;84;21090;-66
2022/07/11 08:57:37;;;;;;;5.47;1.65;;;;;;;23.99;46.82;99514.16;1675421;84;21052;-64
2022/07/11 09:00:09;;;;;;;1.95;1.57;;;;;;;23.96;46.73;99523.16;1677606;84;21059;-67
2022/07/11 09:02:41;;;;;;;4.25;1.60;;;;;;;23.96;46.70;99511.14;1679955;85;21023;-58
2022/07/11 09:05:12;;;;;;;3.75;1.85;;;;;;;23.93;47.44;99518.75;1652345;86;21506;-59
2022/07/11 09:07:48;;;;;;;5.17;1.87;;;;;;;23.93;48.09;99507.56;1679691;84;21070;-58
2022/07/11 09:10:20;;;;;;;3.90;1.50;;;;;;;23.92;47.20;99512.33;1680166;84;21039;-60
2022/07/11 09:13:05;;;;;;;5.37;2.62;;;;;;;23.87;46.75;99513.82;1680101;85;21094;-58
2022/07/11 09:15:39;;;;;;;3.65;1.60;;;;;;;23.86;46.97;99500.97;1679682;85;21434;-58
2022/07/11 09:18:32;;;;;;;3.00;1.70;;;;;;;23.86;46.58;99508.53;1680144;85;21467;-58
2022/07/11 09:26:56;;;;;;;4.50;1.50;;;;;;;23.88;47.30;99504.86;1680398;84;21098;-60
2022/07/11 09:29:27;;;;;;;6.05;1.87;;;;;;;23.84;46.98;99501.02;1680013;84;21054;-59
2022/07/11 09:31:57;;;;;;;3.55;1.65;;;;;;;23.78;46.60;99507.84;1678551;84;21050;-59
2022/07/11 09:34:28;;;;;;;2.52;1.60;;;;;;;23.71;46.47;99501.24;1679372;85;21307;-59
2022/07/11 09:37:00;;;;;;;3.20;1.85;;;;;;;23.66;46.77;99511.95;1606353;88;21155;-58
2022/07/11 09:39:30;;;;;;;3.92;1.85;;;;;;;23.62;47.35;99501.11;1614773;88;21118;-60
2022/07/11 09:42:00;;;;;;;5.03;1.80;;;;;;;23.59;47.74;99499.50;1612076;88;21155;-59
2022/07/11 09:44:33;;;;;;;4.95;1.77;;;;;;;23.57;47.24;99490.02;1612327;88;21495;-59
2022/07/11 09:47:08;;;;;;;2.30;1.50;;;;;;;23.56;46.75;99490.31;1605907;88;21544;-59
2022/07/11 09:49:39;;;;;;;5.17;1.70;;;;;;;23.57;46.48;99486.39;1603039;87;21083;-61
2022/07/11 09:52:17;;;;;;;5.78;1.30;;;;;;;23.59;46.49;99491.94;1617689;88;21095;-59
2022/07/11 09:55:00;;;;;;;4.40;1.60;;;;;;;23.62;46.19;99480.70;1597260;87;21084;-61
2022/07/11 09:57:38;;;;;;;3.85;1.72;;;;;;;23.70;46.38;99488.39;1631856;86;21068;-64
2022/07/11 10:00:14;;;;;;;3.27;1.55;;;;;;;23.80;46.45;99481.78;1679465;84;21143;-70
2022/07/11 10:02:45;;;;;;;5.60;1.67;;;;;;;23.88;46.32;99485.27;1680863;84;21102;-69
2022/07/11 10:05:15;;;;;;;2.92;1.60;;;;;;;23.98;45.48;99483.68;1680098;84;21054;-69
2022/07/11 10:07:44;;;;;;;3.30;1.52;;;;;;;24.09;45.35;99482.37;1680171;85;21475;-69
2022/07/11 10:10:14;;;;;;;4.08;2.02;;;;;;;24.16;45.32;99481.40;1680830;85;21109;-69
2022/07/11 10:12:47;;;;;;;2.80;1.50;;;;;;;24.20;44.90;99480.20;1676157;85;21062;-69
2022/07/11 10:15:25;;;;;;;2.70;1.45;;;;;;;24.13;45.11;99480.63;1675741;84;21106;-70
2022/07/11 10:18:17;;;;;;;2.62;1.60;;;;;;;24.04;45.48;99482.45;1653519;85;21073;-71
2022/07/11 10:21:01;;;;;;;2.80;1.82;;;;;;;23.95;45.49;99477.30;1675446;85;21022;-68
2022/07/11 10:23:55;;;;;;;4.08;1.60;;;;;;;23.91;44.87;99477.66;1676328;85;21455;-70
2022/07/11 10:26:49;;;;;;;2.55;1.40;;;;;;;23.88;44.64;99476.30;1678303;85;21042;-70
2022/07/11 10:29:32;;;;;;;4.03;1.82;;;;;;;23.82;44.88;99478.94;1677826;85;21115;-71
2022/07/11 10:32:09;;;;;;;3.37;1.67;;;;;;;23.78;44.49;99481.27;1674208;85;20987;-71
2022/07/11 10:34:41;;;;;;;2.02;1.40;;;;;;;23.75;44.01;99475.72;1677623;85;21042;-70
2022/07/11 10:37:11;;;;;;;4.53;2.00;;;;;;;23.73;44.05;99483.58;1677490;85;21538;-71
2022/07/11 10:39:57;;;;;;;8.10;4.20;;;;;;;23.66;44.82;99481.18;1680087;84;21541;-71
2022/07/11 10:42:39;;;;;;;10.58;4.85;;;;;;;23.55;46.48;99483.89;1679585;85;21043;-71
2022/07/11 10:45:10;;;;;;;12.53;4.85;;;;;;;23.43;47.78;99491.89;1680375;85;21015;-73
2022/07/11 10:47:43;;;;;;;10.15;4.70;;;;;;;23.30;48.71;99497.66;1676700;84;21587;-71
2022/07/11 10:50:38;;;;;;;14.03;3.87;;;;;;;23.10;49.54;99500.77;1674716;85;21111;-70
2022/07/11 10:53:11;;;;;;;7.25;3.80;;;;;;;22.90;49.29;99504.70;1678705;84;21050;-70
2022/07/11 10:55:50;;;;;;;8.85;3.47;;;;;;;22.53;49.65;99504.58;1679036;84;21035;-62
2022/07/11 10:58:29;;;;;;;7.37;3.20;;;;;;;22.30;49.95;99503.46;1679788;85;21035;-64
2022/07/11 11:01:13;;;;;;;7.53;3.27;;;;;;;22.11;50.47;99511.77;1680242;84;21082;-63
2022/07/11 11:03:45;;;;;;;8.13;3.15;;;;;;;21.96;50.97;99514.09;1680437;84;21086;-62
2022/07/11 11:06:20;;;;;;;8.00;2.90;;;;;;;21.87;51.58;99522.00;1678770;85;21074;-63
2022/07/11 11:08:47;;;;;;;7.05;2.90;;;;;;;21.86;51.89;99520.34;1673792;85;21050;-65
2022/07/11 11:11:35;;;;;;;7.25;3.10;;;;;;;21.88;51.96;99520.31;1676406;85;21050;-63
2022/07/11 11:14:21;;;;;;;7.42;3.12;;;;;;;21.89;52.27;99519.75;1671183;85;21055;-61
2022/07/11 11:16:58;;;;;;;10.68;2.95;;;;;;;21.85;52.49;99518.11;1679486;85;21027;-63
2022/07/11 11:19:52;;;;;;;6.15;2.58;;;;;;;21.83;52.68;99518.97;1677647;85;21074;-63
2022/07/11 11:22:23;;;;;;;7.62;3.40;;;;;;;21.89;52.48;99510.81;1679162;85;21118;-64
2022/07/11 11:24:54;;;;;;;5.80;2.70;;;;;;;21.97;52.39;99513.53;1668875;85;21034;-64
2022/07/11 11:27:27;;;;;;;4.95;2.52;;;;;;;22.05;52.16;99508.73;1675116;85;21032;-62
2022/07/11 11:29:58;;;;;;;4.85;2.60;;;;;;;22.09;51.98;99514.83;1618132;87;21513;-62
2022/07/11 11:32:31;;;;;;;5.42;2.50;;;;;;;22.12;51.73;99521.80;1629399;87;21713;-61
2022/07/11 11:35:01;;;;;;;8.33;2.60;;;;;;;22.09;51.80;99528.77;1627456;87;21056;-61
2022/07/11 11:37:32;;;;;;;5.75;2.70;;;;;;;22.08;51.75;99517.91;1629581;87;21028;-62
2022/07/11 11:40:03;;;;;;;7.17;2.77;;;;;;;22.05;51.76;99525.47;1628096;86;21015;-61
2022/07/11 11:42:33;;;;;;;5.47;2.37;;;;;;;22.03;51.89;99529.95;1625769;86;21161;-62
2022/07/11 11:45:07;;;;;;;5.45;2.22;;;;;;;21.98;51.35;99529.14;1633735;87;21095;-62
2022/07/11 11:47:38;;;;;;;4.03;2.40;;;;;;;21.90;51.46;99529.78;1648948;85;21039;-62
2022/07/11 11:50:09;;;;;;;7.80;2.65;;;;;;;21.87;51.66;99539.56;1657835;85;20995;-61
2022/07/11 11:52:39;;;;;;;5.33;2.22;;;;;;;21.83;51.75;99537.09;1680181;85;21078;-61
2022/07/11 11:55:11;;;;;;;5.85;2.55;;;;;;;21.83;51.76;99545.45;1671358;85;21160;-60
2022/07/11 11:57:43;;;;;;;4.67;2.40;;;;;;;21.82;52.21;99552.16;1681350;83;21079;-61
2022/07/11 12:00:30;;;;;;;8.33;2.45;;;;;;;21.75;54.07;99556.69;1676859;84;21023;-62
2022/07/11 12:03:02;;;;;;;4.58;2.20;;;;;;;21.65;56.65;99561.52;1678845;84;21093;-62